CheckWX is a tool to help pilots better visualize weather data.  It is not intended as a substitute for an official pre-flight weather briefing.

13:56:44 UTC

CYQU METAR
Grande Prairie Airport
Grande Prairie, Canada
Current

57 mins ago

CYQU 201300Z 23003KT 25SM BKN110 BKN130 11/11 A3010 RMK AC5AC1 SLP205
Observed
Jul-20 @ 13:00 UTC
Wind
  • 230° at 3 KTS
Visibility
25 SM
Flight Rules
VFR
Cloud Levels
  • Broken at 11,000' AGL
  • Broken at 13,000' AGL
Temperature
11°C / 52°F
Dewpoint
11°C / 52°F
Humidity
100%
Altimeter
30.1" Hg
Pressure
1019.32 hPa
Previous

2 hours ago

CYQU 201200Z 20005KT 25SM BKN085 OVC200 12/11 A3009 RMK AC7CI1 SLP203 DENSITY ALT 2200FT
Observed
Jul-20 @ 12:00 UTC
Wind
  • 200° at 5 KTS
Visibility
25 SM
Flight Rules
VFR
Cloud Levels
  • Broken at 8,500' AGL
  • Overcast at 20,000' AGL
Temperature
12°C / 54°F
Dewpoint
11°C / 52°F
Humidity
94%
Altimeter
30.09" Hg
Pressure
1018.92 hPa
Previous

3 hours ago

CYQU 201100Z VRB02KT 25SM BKN085 12/11 A3007 RMK AC7 SLP195 DENSITY ALT 2200FT
Observed
Jul-20 @ 11:00 UTC
Wind
  • Variable at 2 KTS
Visibility
25 SM
Flight Rules
VFR
Cloud Levels
  • Broken at 8,500' AGL
Temperature
12°C / 54°F
Dewpoint
11°C / 52°F
Humidity
94%
Altimeter
30.07" Hg
Pressure
1018.32 hPa